createdAt,value
2022-09-09T00:01:37.339Z,9.32
2022-09-09T00:03:50.421Z,9.05
2022-09-09T00:06:01.056Z,8.63
2022-09-09T00:08:05.158Z,8.40
2022-09-09T00:10:19.176Z,9.15
2022-09-09T00:14:33.431Z,8.93
2022-09-09T00:16:38.578Z,9.13
2022-09-09T00:18:55.388Z,9.45
2022-09-09T00:21:08.994Z,8.40
2022-09-09T00:23:20.682Z,9.50
2022-09-09T00:25:31.101Z,9.60
2022-09-09T00:27:49.020Z,8.90
2022-09-09T00:30:12.283Z,9.38
2022-09-09T00:32:23.511Z,9.93
2022-09-09T00:34:27.212Z,8.90
2022-09-09T00:36:30.110Z,8.85
2022-09-09T00:38:53.828Z,10.00
2022-09-09T00:41:43.962Z,9.35
2022-09-09T00:43:50.974Z,8.95
2022-09-09T00:46:19.345Z,9.63
2022-09-09T00:48:23.998Z,10.07
2022-09-09T00:50:34.869Z,9.98
2022-09-09T00:52:55.238Z,10.00
2022-09-09T00:55:21.706Z,9.98
2022-09-09T00:57:34.367Z,9.90
2022-09-09T00:59:59.559Z,10.02
2022-09-09T01:02:02.766Z,9.73
2022-09-09T01:04:10.268Z,9.48
2022-09-09T01:06:26.941Z,9.00
2022-09-09T01:08:34.479Z,9.45
2022-09-09T01:10:54.395Z,9.43
2022-09-09T01:12:58.829Z,8.88
2022-09-09T01:15:11.486Z,9.13
2022-09-09T01:17:23.481Z,8.80
2022-09-09T01:19:34.369Z,8.57
2022-09-09T01:21:48.467Z,9.48
2022-09-09T01:24:32.583Z,9.48
2022-09-09T01:26:45.080Z,9.23
2022-09-09T01:28:50.854Z,9.55
2022-09-09T01:30:52.588Z,9.13
2022-09-09T01:32:59.930Z,8.82
2022-09-09T01:35:02.655Z,9.68
2022-09-09T01:37:09.302Z,9.67
2022-09-09T01:39:11.608Z,9.60
2022-09-09T01:41:13.389Z,10.45
2022-09-09T01:43:15.347Z,9.57
2022-09-09T01:45:17.006Z,9.73
2022-09-09T01:47:18.920Z,9.27
2022-09-09T01:49:20.678Z,9.90
2022-09-09T01:51:22.665Z,8.65
2022-09-09T01:53:24.892Z,9.73
2022-09-09T01:55:32.170Z,9.38
2022-09-09T01:58:18.804Z,9.13
2022-09-09T02:00:20.846Z,8.48
2022-09-09T02:02:33.394Z,9.00
2022-09-09T02:04:39.538Z,8.52
2022-09-09T02:06:41.587Z,9.00
2022-09-09T02:08:50.432Z,8.63
2022-09-09T02:10:55.831Z,9.18
2022-09-09T02:13:06.261Z,9.18
2022-09-09T02:15:21.807Z,9.43
2022-09-09T02:17:36.884Z,9.20
2022-09-09T02:19:50.090Z,8.65
2022-09-09T02:21:53.012Z,8.70
2022-09-09T02:23:55.227Z,8.95
2022-09-09T02:25:59.052Z,9.45
2022-09-09T02:28:01.218Z,9.02
2022-09-09T02:30:04.498Z,9.75
2022-09-09T02:32:10.542Z,10.23
2022-09-09T02:34:13.535Z,9.77
2022-09-09T02:36:17.329Z,9.63
2022-09-09T02:38:19.928Z,9.98
2022-09-09T02:40:22.413Z,10.80
2022-09-09T02:42:24.977Z,11.35
2022-09-09T02:44:26.609Z,11.38
2022-09-09T02:46:43.212Z,10.95
2022-09-09T02:49:03.009Z,10.30
2022-09-09T02:51:07.760Z,10.05
2022-09-09T02:53:17.511Z,10.23
2022-09-09T02:55:37.750Z,9.88
2022-09-09T02:57:40.085Z,9.95
2022-09-09T02:59:42.601Z,9.20
2022-09-09T03:01:45.088Z,9.98
2022-09-09T03:03:47.668Z,9.20
2022-09-09T03:05:49.364Z,10.93
2022-09-09T03:07:51.637Z,10.60
2022-09-09T03:09:56.077Z,10.10
2022-09-09T03:11:57.893Z,10.02
2022-09-09T03:13:59.532Z,10.45
2022-09-09T03:16:01.326Z,10.82
2022-09-09T03:18:03.009Z,10.30
2022-09-09T03:20:05.489Z,10.25
2022-09-09T03:22:07.171Z,10.70
2022-09-09T03:24:08.745Z,10.48
2022-09-09T03:26:10.332Z,10.40
2022-09-09T03:28:12.275Z,10.00
2022-09-09T03:30:14.990Z,10.02
2022-09-09T03:32:18.283Z,10.70
2022-09-09T03:34:20.118Z,10.38
2022-09-09T03:36:21.755Z,9.93
2022-09-09T03:38:26.758Z,10.63
2022-09-09T03:40:28.412Z,10.73
2022-09-09T03:42:30.180Z,10.25
2022-09-09T03:44:31.929Z,9.43
2022-09-09T03:46:33.594Z,10.15
2022-09-09T03:48:35.370Z,9.65
2022-09-09T03:50:37.065Z,10.18
2022-09-09T03:52:40.032Z,10.07
2022-09-09T03:54:43.654Z,10.85
2022-09-09T03:58:47.066Z,11.13
2022-09-09T04:00:55.965Z,12.20
2022-09-09T04:02:58.757Z,11.30
2022-09-09T04:05:00.747Z,11.33
2022-09-09T04:07:02.928Z,10.90
2022-09-09T04:09:04.633Z,11.23
2022-09-09T04:11:07.965Z,10.30
2022-09-09T04:13:09.612Z,10.85
2022-09-09T04:15:11.683Z,10.85
2022-09-09T04:17:13.346Z,10.95
2022-09-09T04:19:15.429Z,10.70
2022-09-09T04:21:17.250Z,11.23
2022-09-09T04:23:22.428Z,10.43
2022-09-09T04:25:24.118Z,11.32
2022-09-09T04:27:25.733Z,11.13
2022-09-09T04:29:27.308Z,10.82
2022-09-09T04:31:28.985Z,10.45
2022-09-09T04:33:32.287Z,11.85
2022-09-09T04:35:34.991Z,10.05
2022-09-09T04:37:36.709Z,10.63
2022-09-09T04:39:38.370Z,10.57
2022-09-09T04:41:40.007Z,11.32
2022-09-09T04:43:41.907Z,11.15
2022-09-09T04:45:44.455Z,11.10
2022-09-09T04:47:46.446Z,10.98
2022-09-09T04:49:48.604Z,11.30
2022-09-09T04:51:50.581Z,10.48
2022-09-09T04:53:52.424Z,10.70
2022-09-09T04:56:08.365Z,10.52
2022-09-09T04:58:09.937Z,11.10
2022-09-09T05:00:12.168Z,11.00
2022-09-09T05:02:14.087Z,12.02
2022-09-09T05:04:18.241Z,11.20
2022-09-09T05:06:21.848Z,11.05
2022-09-09T05:10:25.549Z,11.13
2022-09-09T05:12:27.763Z,11.55
2022-09-09T05:14:31.099Z,11.60
2022-09-09T05:16:32.773Z,12.27
2022-09-09T05:18:34.480Z,10.77
2022-09-09T05:20:36.317Z,11.07
2022-09-09T05:22:37.890Z,11.13
2022-09-09T05:24:39.810Z,11.23
2022-09-09T05:26:41.579Z,11.52
2022-09-09T05:28:43.227Z,11.13
2022-09-09T05:30:44.805Z,11.57
2022-09-09T05:32:47.864Z,12.85
2022-09-09T05:34:49.489Z,11.68
2022-09-09T05:36:53.184Z,10.93
2022-09-09T05:40:59.116Z,12.20
2022-09-09T05:43:01.604Z,11.30
2022-09-09T05:45:03.594Z,12.82
2022-09-09T05:47:05.377Z,12.45
2022-09-09T05:49:07.528Z,11.45
2022-09-09T05:51:14.233Z,12.27
2022-09-09T05:53:15.812Z,11.60
2022-09-09T05:55:17.577Z,10.82
2022-09-09T05:57:20.451Z,11.93
2022-09-09T05:59:24.240Z,10.98
2022-09-09T06:01:34.082Z,11.40
2022-09-09T06:03:40.458Z,12.25
2022-09-09T06:05:42.033Z,12.52
2022-09-09T06:07:45.979Z,12.57
2022-09-09T06:09:48.047Z,12.85
2022-09-09T06:11:49.649Z,13.93
2022-09-09T06:13:55.744Z,13.48
2022-09-09T06:15:57.504Z,12.40
2022-09-09T06:17:59.174Z,13.75
2022-09-09T06:20:00.818Z,13.40
2022-09-09T06:22:02.558Z,13.68
2022-09-09T06:24:04.938Z,12.88
2022-09-09T06:26:11.808Z,13.05
2022-09-09T06:28:14.616Z,13.18
2022-09-09T06:30:18.189Z,14.65
2022-09-09T06:34:21.863Z,13.35
2022-09-09T06:36:26.102Z,12.18
2022-09-09T06:38:28.817Z,13.27
2022-09-09T06:40:31.458Z,12.27
2022-09-09T06:42:33.068Z,12.70
2022-09-09T06:44:35.597Z,11.43
2022-09-09T06:46:37.403Z,10.87
2022-09-09T06:48:42.794Z,11.20
2022-09-09T06:50:44.582Z,10.93
2022-09-09T06:52:48.756Z,10.80
2022-09-09T06:54:50.921Z,11.65
2022-09-09T06:56:52.863Z,11.75
2022-09-09T06:58:55.689Z,11.77
2022-09-09T07:01:07.431Z,12.25
2022-09-09T07:03:11.157Z,11.82
2022-09-09T07:05:12.890Z,11.90
2022-09-09T07:07:16.492Z,11.43
2022-09-09T07:11:21.340Z,10.43
2022-09-09T07:13:26.754Z,16.88
2022-09-09T07:15:28.364Z,14.15
2022-09-09T07:17:30.251Z,13.40
2022-09-09T07:19:31.890Z,11.25
2022-09-09T07:21:34.519Z,11.95
2022-09-09T07:23:39.614Z,11.13
2022-09-09T07:25:46.401Z,11.35
2022-09-09T07:27:48.091Z,10.95
2022-09-09T07:29:49.736Z,12.00
2022-09-09T07:31:51.377Z,12.55
2022-09-09T07:33:53.109Z,13.65
2022-09-09T07:35:55.290Z,11.63
2022-09-09T07:37:57.181Z,11.90
2022-09-09T07:39:59.824Z,10.68
2022-09-09T07:42:01.579Z,10.45
2022-09-09T07:44:07.766Z,9.65
2022-09-09T07:46:10.955Z,9.52
2022-09-09T07:48:12.727Z,10.13
2022-09-09T07:50:14.369Z,8.93
2022-09-09T07:52:18.263Z,9.13
2022-09-09T07:54:24.478Z,9.43
2022-09-09T07:56:27.274Z,9.85
2022-09-09T07:58:28.852Z,9.30
2022-09-09T08:00:30.437Z,9.50
2022-09-09T08:02:32.134Z,9.02
2022-09-09T08:04:33.899Z,8.18
2022-09-09T08:06:40.800Z,7.38
2022-09-09T08:08:44.233Z,8.52
2022-09-09T08:13:01.505Z,8.52
2022-09-09T08:15:09.213Z,8.27
2022-09-09T08:17:10.978Z,7.45
2022-09-09T08:19:13.081Z,7.97
2022-09-09T08:21:18.806Z,7.95
2022-09-09T08:23:20.430Z,7.25
2022-09-09T08:25:22.079Z,7.63
2022-09-09T08:27:23.791Z,8.20
2022-09-09T08:29:25.430Z,7.68
2022-09-09T08:31:32.659Z,7.80
2022-09-09T08:33:34.659Z,8.07
2022-09-09T08:35:36.480Z,7.93
2022-09-09T08:37:38.227Z,8.77
2022-09-09T08:39:39.867Z,7.78
2022-09-09T08:42:12.893Z,7.47
2022-09-09T08:44:37.817Z,7.72
2022-09-09T08:46:51.652Z,7.47
2022-09-09T08:49:05.030Z,6.43
2022-09-09T08:51:09.772Z,6.55
2022-09-09T08:53:14.236Z,7.18
2022-09-09T08:55:27.030Z,6.97
2022-09-09T08:57:30.203Z,6.38
2022-09-09T08:59:31.824Z,6.32
2022-09-09T09:01:52.662Z,7.15
2022-09-09T09:03:54.237Z,6.80
2022-09-09T09:06:07.920Z,7.07
2022-09-09T09:08:21.949Z,6.75
2022-09-09T09:10:41.654Z,6.55
2022-09-09T09:12:45.603Z,6.30
2022-09-09T09:14:49.174Z,6.32
2022-09-09T09:17:01.340Z,5.82
2022-09-09T09:19:04.499Z,6.00
2022-09-09T09:21:31.195Z,5.57
2022-09-09T09:23:44.971Z,6.05
2022-09-09T09:28:11.505Z,6.05
2022-09-09T09:30:27.134Z,6.10
2022-09-09T09:32:34.385Z,6.28
2022-09-09T09:34:36.162Z,6.15
2022-09-09T09:36:43.528Z,6.03
2022-09-09T09:41:35.691Z,5.95
2022-09-09T09:43:41.772Z,5.90
2022-09-09T09:46:06.825Z,5.90
2022-09-09T09:48:14.124Z,6.03
2022-09-09T09:50:21.561Z,6.35
2022-09-09T09:52:25.674Z,5.43
2022-09-09T09:54:32.917Z,5.72
2022-09-09T09:56:34.790Z,6.05
2022-09-09T09:58:45.571Z,5.85
2022-09-09T10:00:52.238Z,6.60
2022-09-09T10:02:54.365Z,6.05
2022-09-09T10:05:20.987Z,6.13
2022-09-09T10:07:24.823Z,6.43
2022-09-09T10:09:29.559Z,5.85
2022-09-09T10:12:01.398Z,5.93
2022-09-09T10:14:22.813Z,6.82
2022-09-09T10:16:34.853Z,6.28
2022-09-09T10:18:38.497Z,6.43
2022-09-09T10:21:03.844Z,5.93
2022-09-09T10:23:43.692Z,6.20
2022-09-09T10:25:58.744Z,6.40
2022-09-09T10:28:12.497Z,6.28
2022-09-09T10:32:21.589Z,6.03
2022-09-09T10:34:41.861Z,6.20
2022-09-09T10:36:47.870Z,6.07
2022-09-09T10:38:58.714Z,7.38
2022-09-09T10:41:16.795Z,6.50
2022-09-09T10:43:42.698Z,7.07
2022-09-09T10:46:41.798Z,7.10
2022-09-09T10:48:54.664Z,8.25
2022-09-09T10:51:30.130Z,7.65
2022-09-09T10:54:03.700Z,8.07
2022-09-09T10:56:14.818Z,8.43
2022-09-09T10:58:26.499Z,7.90
2022-09-09T11:00:58.035Z,8.35
2022-09-09T11:03:03.205Z,8.05
2022-09-09T11:05:06.328Z,8.35
2022-09-09T11:07:13.757Z,9.20
2022-09-09T11:09:18.744Z,9.38
2022-09-09T11:11:33.512Z,9.48
2022-09-09T11:13:59.662Z,8.05
2022-09-09T11:16:29.666Z,8.10
2022-09-09T11:18:33.026Z,8.02
2022-09-09T11:20:36.020Z,9.00
2022-09-09T11:22:50.189Z,8.55
2022-09-09T11:25:01.356Z,9.20
2022-09-09T11:27:20.072Z,12.93
2022-09-09T11:29:45.206Z,11.45
2022-09-09T11:32:20.794Z,8.77
2022-09-09T11:34:53.614Z,8.15
2022-09-09T11:37:15.684Z,8.60
2022-09-09T11:39:32.110Z,8.70
2022-09-09T11:41:37.825Z,7.95
2022-09-09T11:43:47.342Z,9.45
2022-09-09T11:45:58.719Z,8.60
2022-09-09T11:48:04.752Z,7.28
2022-09-09T11:50:15.473Z,7.75
2022-09-09T11:52:25.033Z,7.88
2022-09-09T11:54:33.478Z,7.00
2022-09-09T11:56:45.011Z,7.03
2022-09-09T11:58:59.453Z,8.82
2022-09-09T12:01:01.790Z,7.68
2022-09-09T12:03:04.837Z,8.02
2022-09-09T12:05:09.842Z,8.60
2022-09-09T12:07:12.380Z,8.38
2022-09-09T12:10:02.660Z,7.50
2022-09-09T12:12:23.398Z,8.60
2022-09-09T12:14:55.715Z,7.68
2022-09-09T12:16:57.345Z,8.07
2022-09-09T12:19:23.351Z,8.05
2022-09-09T12:22:00.380Z,7.85
2022-09-09T12:24:07.372Z,7.95
2022-09-09T12:26:38.357Z,8.15
2022-09-09T12:29:05.582Z,8.45
2022-09-09T12:31:14.221Z,7.05
2022-09-09T12:33:18.806Z,7.78
2022-09-09T12:35:27.498Z,7.78
2022-09-09T12:37:42.503Z,7.45
2022-09-09T12:39:51.870Z,7.55
2022-09-09T12:41:58.436Z,7.35
2022-09-09T12:44:07.526Z,5.82
2022-09-09T12:46:11.692Z,5.82
2022-09-09T12:48:16.900Z,5.75
2022-09-09T12:50:27.382Z,5.95
2022-09-09T12:52:33.369Z,6.47
2022-09-09T12:54:37.236Z,5.97
2022-09-09T12:56:38.898Z,6.65
2022-09-09T12:58:47.919Z,6.43
2022-09-09T13:00:53.465Z,6.57
2022-09-09T13:03:02.579Z,7.25
2022-09-09T13:05:14.994Z,7.35
2022-09-09T13:07:17.516Z,6.65
2022-09-09T13:09:19.387Z,5.37
2022-09-09T13:11:25.394Z,5.80
2022-09-09T13:13:36.270Z,4.82
2022-09-09T13:15:37.957Z,5.30
2022-09-09T13:17:40.511Z,5.07
2022-09-09T13:19:47.565Z,5.63
2022-09-09T13:21:49.171Z,5.70
2022-09-09T13:23:53.224Z,5.35
2022-09-09T13:26:19.260Z,6.47
2022-09-09T13:28:26.684Z,6.85
2022-09-09T13:30:30.463Z,7.93
2022-09-09T13:32:32.627Z,7.38
2022-09-09T13:34:37.265Z,7.93
2022-09-09T13:36:38.871Z,7.88
2022-09-09T13:38:52.604Z,7.97
2022-09-09T13:43:00.660Z,7.28
2022-09-09T13:45:05.248Z,6.20
2022-09-09T13:47:10.871Z,7.05
2022-09-09T13:49:12.801Z,7.28
2022-09-09T13:51:33.424Z,7.18
2022-09-09T13:53:35.133Z,7.50
2022-09-09T13:55:37.624Z,7.18
2022-09-09T13:57:39.202Z,7.10
2022-09-09T14:00:03.686Z,8.00
2022-09-09T14:02:03.315Z,7.03
2022-09-09T14:04:07.437Z,7.72
2022-09-09T14:06:09.093Z,7.47
2022-09-09T14:08:38.199Z,6.70
2022-09-09T14:10:40.054Z,6.70
2022-09-09T14:12:42.414Z,6.80
2022-09-09T14:14:44.878Z,6.95
2022-09-09T14:16:46.732Z,6.60
2022-09-09T14:18:48.825Z,6.35
2022-09-09T14:20:51.338Z,6.53
2022-09-09T14:22:54.484Z,6.93
2022-09-09T14:24:56.113Z,7.10
2022-09-09T14:26:57.772Z,6.32
2022-09-09T14:28:59.813Z,7.13
2022-09-09T14:31:02.382Z,6.95
2022-09-09T14:33:04.343Z,7.63
2022-09-09T14:35:06.136Z,7.40
2022-09-09T14:37:07.802Z,7.57
2022-09-09T14:39:09.410Z,7.53
2022-09-09T14:41:17.954Z,7.57
2022-09-09T14:43:19.784Z,7.50
2022-09-09T14:45:22.358Z,8.27
2022-09-09T14:47:24.116Z,7.35
2022-09-09T14:49:26.060Z,8.05
2022-09-09T14:51:30.781Z,7.10
2022-09-09T14:53:32.382Z,7.47
2022-09-09T14:55:34.308Z,7.35
2022-09-09T14:57:36.815Z,6.90
2022-09-09T14:59:38.438Z,8.07
2022-09-09T15:01:40.230Z,6.78
2022-09-09T15:03:42.946Z,6.88
2022-09-09T15:05:44.512Z,7.70
2022-09-09T15:07:46.327Z,7.70
2022-09-09T15:09:49.662Z,7.88
2022-09-09T15:11:51.322Z,6.82
2022-09-09T15:13:54.033Z,7.28
2022-09-09T15:15:55.742Z,7.22
2022-09-09T15:17:58.109Z,7.22
2022-09-09T15:19:59.664Z,7.82
2022-09-09T15:22:01.479Z,8.43
2022-09-09T15:24:03.580Z,8.07
2022-09-09T15:26:05.953Z,8.00
2022-09-09T15:28:07.760Z,7.95
2022-09-09T15:30:10.208Z,7.90
2022-09-09T15:32:11.823Z,6.47
2022-09-09T15:34:14.916Z,8.10
2022-09-09T15:36:22.959Z,7.80
2022-09-09T15:38:24.794Z,7.25
2022-09-09T15:40:26.450Z,8.63
2022-09-09T15:42:27.987Z,8.18
2022-09-09T15:44:29.586Z,6.90
2022-09-09T15:46:37.187Z,7.05
2022-09-09T15:48:39.580Z,8.38
2022-09-09T15:50:41.196Z,8.70
2022-09-09T15:52:43.013Z,7.30
2022-09-09T15:54:44.864Z,8.00
2022-09-09T15:56:47.643Z,7.53
2022-09-09T15:58:49.284Z,8.32
2022-09-09T16:00:51.236Z,8.50
2022-09-09T16:02:53.248Z,8.45
2022-09-09T16:04:54.845Z,7.75
2022-09-09T16:06:59.680Z,7.65
2022-09-09T16:09:04.318Z,7.22
2022-09-09T16:11:15.547Z,8.57
2022-09-09T16:13:17.414Z,8.80
2022-09-09T16:15:21.192Z,8.00
2022-09-09T16:17:22.820Z,8.63
2022-09-09T16:19:24.497Z,7.90
2022-09-09T16:21:30.254Z,8.50
2022-09-09T16:23:33.534Z,8.65
2022-09-09T16:25:35.505Z,7.93
2022-09-09T16:27:37.133Z,7.53
2022-09-09T16:29:38.756Z,7.88
2022-09-09T16:31:41.616Z,9.02
2022-09-09T16:33:43.327Z,7.80
2022-09-09T16:35:45.201Z,8.30
2022-09-09T16:37:46.996Z,8.25
2022-09-09T16:39:48.681Z,9.10
2022-09-09T16:41:51.079Z,8.63
2022-09-09T16:43:57.154Z,8.18
2022-09-09T16:45:58.876Z,9.88
2022-09-09T16:48:01.537Z,9.27
2022-09-09T16:50:03.410Z,8.52
2022-09-09T16:52:05.042Z,9.23
2022-09-09T16:54:08.305Z,9.50
2022-09-09T16:56:12.169Z,12.70
2022-09-09T16:58:13.842Z,13.18
2022-09-09T17:00:17.452Z,10.25
2022-09-09T17:02:19.290Z,10.07
2022-09-09T17:04:25.157Z,9.20
2022-09-09T17:06:27.046Z,9.27
2022-09-09T17:08:31.491Z,9.82
2022-09-09T17:10:33.161Z,10.27
2022-09-09T17:12:40.719Z,9.57
2022-09-09T17:14:44.047Z,11.10
2022-09-09T17:16:45.889Z,10.68
2022-09-09T17:18:47.695Z,9.40
2022-09-09T17:20:49.331Z,10.00
2022-09-09T17:22:51.165Z,11.27
2022-09-09T17:24:52.797Z,11.07
2022-09-09T17:26:55.342Z,11.20
2022-09-09T17:28:59.800Z,10.90
2022-09-09T17:31:03.837Z,10.00
2022-09-09T17:33:05.576Z,9.90
2022-09-09T17:35:07.375Z,10.48
2022-09-09T17:37:09.037Z,9.68
2022-09-09T17:39:10.901Z,11.65
2022-09-09T17:41:16.400Z,11.88
2022-09-09T17:43:18.726Z,11.55
2022-09-09T17:45:20.534Z,11.15
2022-09-09T17:47:22.213Z,10.57
2022-09-09T17:49:23.846Z,11.43
2022-09-09T17:51:28.961Z,11.35
2022-09-09T17:53:31.781Z,11.50
2022-09-09T17:55:34.469Z,11.82
2022-09-09T17:57:36.419Z,11.95
2022-09-09T17:59:38.062Z,11.02
2022-09-09T18:01:42.203Z,12.00
2022-09-09T18:03:45.147Z,13.18
2022-09-09T18:05:46.757Z,12.50
2022-09-09T18:07:49.127Z,13.40
2022-09-09T18:09:50.760Z,12.10
2022-09-09T18:11:56.396Z,11.68
2022-09-09T18:14:00.759Z,12.45
2022-09-09T18:16:02.654Z,12.38
2022-09-09T18:18:06.992Z,12.35
2022-09-09T18:20:09.193Z,11.48
2022-09-09T18:22:10.795Z,11.40
2022-09-09T18:24:13.951Z,11.13
2022-09-09T18:26:24.602Z,10.25
2022-09-09T18:28:27.740Z,9.57
2022-09-09T18:30:30.451Z,8.80
2022-09-09T18:32:32.133Z,8.82
2022-09-09T18:34:33.887Z,9.52
2022-09-09T18:36:49.479Z,9.10
2022-09-09T18:38:51.574Z,10.05
2022-09-09T18:40:53.457Z,9.75
2022-09-09T18:42:55.042Z,9.32
2022-09-09T18:44:56.625Z,9.70
2022-09-09T18:46:58.772Z,9.63
2022-09-09T18:49:00.751Z,9.55
2022-09-09T18:51:07.006Z,8.88
2022-09-09T18:53:09.481Z,11.60
2022-09-09T18:55:11.125Z,10.75
2022-09-09T18:57:12.756Z,9.43
2022-09-09T18:59:19.679Z,8.43
2022-09-09T19:01:22.248Z,9.15
2022-09-09T19:03:25.644Z,9.57
2022-09-09T19:05:27.352Z,9.00
2022-09-09T19:07:28.954Z,9.60
2022-09-09T19:09:32.578Z,9.73
2022-09-09T19:11:34.554Z,9.38
2022-09-09T19:13:36.702Z,8.63
2022-09-09T19:15:40.070Z,9.77
2022-09-09T19:17:41.935Z,8.60
2022-09-09T19:19:43.752Z,8.55
2022-09-09T19:21:45.668Z,9.25
2022-09-09T19:23:48.100Z,9.07
2022-09-09T19:25:50.509Z,8.80
2022-09-09T19:27:52.391Z,8.85
2022-09-09T19:29:57.011Z,8.55
2022-09-09T19:34:21.989Z,9.20
2022-09-09T19:36:24.982Z,7.63
2022-09-09T19:38:26.809Z,7.75
2022-09-09T19:40:30.469Z,7.82
2022-09-09T19:42:32.215Z,8.10
2022-09-09T19:44:33.857Z,7.38
2022-09-09T19:46:37.230Z,6.82
2022-09-09T19:48:41.061Z,7.45
2022-09-09T19:50:44.446Z,7.65
2022-09-09T19:52:46.045Z,7.47
2022-09-09T19:54:47.855Z,7.43
2022-09-09T19:56:49.455Z,6.43
2022-09-09T19:58:52.249Z,7.30
2022-09-09T20:00:54.041Z,7.80
2022-09-09T20:03:17.559Z,7.05
2022-09-09T20:05:17.321Z,7.13
2022-09-09T20:07:19.285Z,7.35
2022-09-09T20:09:21.734Z,7.03
2022-09-09T20:11:23.791Z,7.40
2022-09-09T20:13:25.493Z,7.35
2022-09-09T20:15:27.157Z,8.18
2022-09-09T20:17:28.826Z,7.90
2022-09-09T20:19:31.225Z,7.60
2022-09-09T20:21:38.407Z,7.53
2022-09-09T20:23:40.748Z,7.35
2022-09-09T20:25:43.509Z,7.80
2022-09-09T20:27:45.504Z,7.47
2022-09-09T20:29:47.277Z,7.90
2022-09-09T20:31:49.177Z,8.57
2022-09-09T20:33:52.093Z,7.97
2022-09-09T20:35:54.241Z,7.68
2022-09-09T20:37:55.818Z,8.77
2022-09-09T20:39:57.728Z,8.48
2022-09-09T20:41:59.417Z,8.15
2022-09-09T20:44:03.826Z,8.38
2022-09-09T20:46:05.650Z,8.27
2022-09-09T20:48:07.573Z,8.88
2022-09-09T20:50:10.565Z,8.85
2022-09-09T20:52:13.243Z,8.25
2022-09-09T20:54:17.607Z,8.00
2022-09-09T20:56:20.320Z,7.50
2022-09-09T20:58:21.890Z,8.05
2022-09-09T21:00:23.701Z,8.00
2022-09-09T21:02:25.278Z,7.90
2022-09-09T21:04:27.885Z,7.70
2022-09-09T21:06:29.516Z,7.55
2022-09-09T21:08:31.594Z,8.68
2022-09-09T21:10:33.177Z,8.23
2022-09-09T21:12:34.999Z,7.70
2022-09-09T21:14:37.037Z,8.07
2022-09-09T21:16:38.679Z,8.45
2022-09-09T21:18:40.750Z,8.90
2022-09-09T21:20:45.120Z,8.05
2022-09-09T21:22:46.966Z,7.72
2022-09-09T21:24:48.555Z,8.57
2022-09-09T21:26:50.175Z,8.15
2022-09-09T21:28:53.711Z,7.72
2022-09-09T21:32:58.174Z,8.38
2022-09-09T21:34:59.897Z,8.73
2022-09-09T21:37:02.331Z,9.25
2022-09-09T21:39:04.111Z,8.00
2022-09-09T21:41:07.749Z,8.88
2022-09-09T21:43:12.698Z,8.68
2022-09-09T21:45:14.762Z,8.40
2022-09-09T21:47:16.598Z,8.02
2022-09-09T21:49:18.160Z,8.93
2022-09-09T21:51:19.789Z,8.80
2022-09-09T21:53:21.414Z,9.50
2022-09-09T21:55:23.017Z,9.02
2022-09-09T21:57:25.150Z,10.32
2022-09-09T21:59:28.048Z,9.38
2022-09-09T22:01:33.155Z,8.63
2022-09-09T22:03:37.945Z,8.23
2022-09-09T22:05:42.790Z,9.10
2022-09-09T22:07:44.477Z,7.63
2022-09-09T22:09:46.121Z,8.00
2022-09-09T22:11:48.127Z,7.72
2022-09-09T22:13:50.259Z,7.82
2022-09-09T22:15:51.909Z,7.63
2022-09-09T22:17:53.931Z,7.50
2022-09-09T22:19:55.841Z,7.97
2022-09-09T22:21:57.606Z,7.18
2022-09-09T22:24:01.743Z,8.23
2022-09-09T22:26:04.387Z,8.13
2022-09-09T22:28:07.751Z,8.07
2022-09-09T22:30:10.137Z,7.90
2022-09-09T22:32:11.787Z,8.23
2022-09-09T22:34:13.393Z,7.28
2022-09-09T22:36:15.120Z,7.78
2022-09-09T22:38:17.326Z,7.60
2022-09-09T22:40:18.968Z,7.57
2022-09-09T22:42:20.824Z,7.72
2022-09-09T22:44:28.615Z,7.50
2022-09-09T22:46:30.295Z,8.48
2022-09-09T22:48:33.217Z,8.40
2022-09-09T22:50:38.984Z,8.35
2022-09-09T22:52:43.651Z,7.57
2022-09-09T22:54:46.816Z,8.73
2022-09-09T22:56:51.673Z,7.68
2022-09-09T22:58:55.805Z,8.35
2022-09-09T23:01:00.279Z,8.90
2022-09-09T23:03:01.865Z,8.45
2022-09-09T23:05:05.137Z,8.40
2022-09-09T23:07:08.548Z,7.93
2022-09-09T23:09:12.023Z,8.15
2022-09-09T23:11:13.728Z,8.73
2022-09-09T23:13:15.592Z,8.50
2022-09-09T23:15:17.400Z,9.07
2022-09-09T23:17:21.010Z,10.27
2022-09-09T23:21:28.252Z,10.02
2022-09-09T23:23:29.929Z,10.75
2022-09-09T23:25:31.542Z,11.70
2022-09-09T23:27:33.591Z,10.50
2022-09-09T23:29:35.176Z,10.88
2022-09-09T23:31:38.653Z,13.30
2022-09-09T23:35:42.205Z,11.02
2022-09-09T23:37:44.031Z,11.55
2022-09-09T23:39:45.697Z,10.63
2022-09-09T23:41:50.289Z,11.50
2022-09-09T23:43:53.229Z,10.40
2022-09-09T23:45:56.981Z,10.82
2022-09-09T23:47:58.612Z,10.23
2022-09-09T23:50:00.410Z,9.57
2022-09-09T23:52:06.382Z,9.88
2022-09-09T23:54:09.831Z,9.27
2022-09-09T23:56:12.852Z,9.90
2022-09-09T23:58:17.642Z,9.60
